Terminal Aerodrome Forecast
Issued by NWS

Home | Current Version | Previous Version | Text Only | Print | Product List | Glossary On
Versions: 1 2 3 4 5 6 7 8 9 10 11 12 13
000
FTAK31 PAJN 312336
TAFAYA
TAF
PAYA 312336Z 0100/0124 23008KT P6SM FEW040 SCT200
     FM010600 00000KT P6SM SCT040 BKN080
     FM012000 12008KT P6SM VCSH BKN035 OVC060
      AMD LTD TO CLD VIS AND WIND 0101/0109=

USA.gov is the U.S. government's official web portal to all federal, state and local government web resources and services.